Time;durP1;ratioP1;P1;durP2;ratioP2;P2;SDS_P1;SDS_P2;PMS_P1;PMS_P2;Temp;Humidity;BMP_temperature;BMP_pressure;BME280_temperature;BME280_humidity;BME280_pressure;Samples;Min_cycle;Max_cycle;Signal;HPM_P1;HPM_P2
2021/07/05 00:02:33;;;;;;;1.63;0.93;;;;;;;12.05;84.43;90595.00;4995909;28;20022;-87
2021/07/05 00:05:09;;;;;;;2.53;1.30;;;;;;;12.19;83.46;90590.03;4996063;28;20025;-85
2021/07/05 00:07:51;;;;;;;3.65;1.48;;;;;;;12.23;83.45;90592.75;4996265;28;20534;-85
2021/07/05 00:10:32;;;;;;;3.13;1.30;;;;;;;12.22;83.35;90591.22;4995579;28;20021;-86
2021/07/05 00:13:13;;;;;;;2.17;1.40;;;;;;;12.24;83.35;90581.94;5013431;28;20042;-85
2021/07/05 00:15:48;;;;;;;3.40;1.27;;;;;;;12.26;83.21;90574.53;4996760;28;20108;-84
2021/07/05 00:18:27;;;;;;;3.03;1.45;;;;;;;12.22;83.45;90571.06;4996051;28;20072;-85
2021/07/05 00:21:06;;;;;;;3.97;1.30;;;;;;;12.18;83.63;90568.41;5012059;28;20030;-85
2021/07/05 00:23:44;;;;;;;2.30;1.40;;;;;;;12.20;83.56;90581.13;4980653;28;20049;-86
2021/07/05 00:26:24;;;;;;;1.67;1.20;;;;;;;12.23;83.26;90577.84;4999587;28;20026;-85
2021/07/05 00:28:57;;;;;;;3.10;1.52;;;;;;;12.29;82.66;90586.88;4976859;28;20515;-85
2021/07/05 00:31:32;;;;;;;1.80;1.10;;;;;;;12.29;82.76;90584.25;4963688;28;20033;-85
2021/07/05 00:34:06;;;;;;;3.70;1.60;;;;;;;12.26;83.17;90592.81;4995742;28;20526;-86
2021/07/05 00:36:45;;;;;;;3.42;1.30;;;;;;;12.23;83.41;90590.13;4995606;28;20488;-85
2021/07/05 00:39:25;;;;;;;2.72;1.10;;;;;;;12.35;82.68;90580.28;4995969;28;20029;-85
2021/07/05 00:42:06;;;;;;;2.10;1.33;;;;;;;12.24;83.06;90571.50;4996582;28;20068;-85
2021/07/05 00:44:48;;;;;;;2.03;1.30;;;;;;;12.34;82.87;90578.78;4994889;28;20025;-85
2021/07/05 00:47:27;;;;;;;1.98;1.60;;;;;;;12.28;83.12;90576.78;4996144;28;20034;-86
2021/07/05 00:50:08;;;;;;;3.10;1.20;;;;;;;12.33;83.10;90579.88;4965488;28;20027;-85
2021/07/05 00:52:45;;;;;;;2.10;1.38;;;;;;;12.30;83.28;90570.13;4941996;28;20118;-85
2021/07/05 00:55:18;;;;;;;2.78;1.20;;;;;;;12.38;83.02;90558.69;4960046;28;20030;-85
2021/07/05 00:57:57;;;;;;;1.80;1.30;;;;;;;12.28;83.57;90566.34;4995217;28;20026;-86
2021/07/05 01:00:38;;;;;;;2.50;1.30;;;;;;;12.33;83.72;90573.88;4979420;28;20283;-86
2021/07/05 01:03:05;;;;;;;1.88;1.48;;;;;;;12.43;82.85;90573.31;4995360;28;20491;-85
2021/07/05 01:05:44;;;;;;;2.70;1.15;;;;;;;12.53;82.58;90577.22;4978191;28;20034;-85
2021/07/05 01:08:22;;;;;;;3.83;1.40;;;;;;;12.37;83.21;90585.94;4995008;28;20025;-85
2021/07/05 01:10:57;;;;;;;2.50;1.30;;;;;;;12.39;82.82;90583.72;4978388;28;20049;-86
2021/07/05 01:13:35;;;;;;;2.85;1.10;;;;;;;12.42;83.08;90575.19;4994831;28;20026;-85
2021/07/05 01:16:12;;;;;;;1.85;1.33;;;;;;;12.45;83.18;90576.34;5011700;28;20033;-85
2021/07/05 01:18:48;;;;;;;3.30;1.20;;;;;;;12.47;83.22;90578.59;4972192;28;20030;-87
2021/07/05 01:21:24;;;;;;;2.13;1.30;;;;;;;12.48;84.30;90574.91;4956266;28;20027;-85
2021/07/05 01:24:04;;;;;;;1.48;1.08;;;;;;;12.42;84.46;90572.56;4940810;28;20030;-85
2021/07/05 01:26:48;;;;;;;1.40;1.00;;;;;;;12.40;84.97;90574.78;4972747;28;20049;-85
2021/07/05 01:29:27;;;;;;;1.30;0.85;;;;;;;12.35;85.01;90575.06;5004546;28;20026;-85
2021/07/05 01:32:06;;;;;;;0.80;0.65;;;;;;;12.31;85.15;90571.63;4995127;28;20120;-86
2021/07/05 01:34:44;;;;;;;1.83;0.88;;;;;;;12.40;85.04;90558.31;4979497;28;20105;-85
2021/07/05 01:37:23;;;;;;;1.30;0.75;;;;;;;12.29;85.81;90555.53;4994695;28;20022;-85
2021/07/05 01:40:01;;;;;;;1.48;0.80;;;;;;;12.25;86.44;90561.78;4978668;28;20033;-85
2021/07/05 01:42:35;;;;;;;0.70;0.60;;;;;;;12.26;86.38;90552.84;4993907;28;20030;-85
2021/07/05 01:45:15;;;;;;;3.50;0.75;;;;;;;12.24;86.83;90552.47;4994218;28;20034;-85
2021/07/05 01:47:52;;;;;;;0.85;0.55;;;;;;;12.19;86.62;90549.03;4978068;28;20054;-85
2021/07/05 01:50:27;;;;;;;0.77;0.32;;;;;;;12.20;86.32;90555.75;4959687;28;20023;-85
2021/07/05 01:53:11;;;;;;;0.75;0.30;;;;;;;12.20;86.28;90558.38;4956294;28;20023;-86
2021/07/05 01:55:48;;;;;;;1.67;0.22;;;;;;;12.27;86.15;90570.81;4956822;28;20081;-86
2021/07/05 01:58:25;;;;;;;0.35;0.30;;;;;;;12.18;86.46;90565.03;4972636;28;20027;-85
2021/07/05 02:01:07;;;;;;;0.30;0.20;;;;;;;12.15;86.98;90565.72;4972290;28;20026;-85
2021/07/05 02:03:43;;;;;;;1.42;0.50;;;;;;;12.17;86.30;90559.06;4995166;28;20492;-85
2021/07/05 02:06:26;;;;;;;0.70;0.30;;;;;;;12.21;86.60;90561.72;4978455;28;20064;-84
2021/07/05 02:09:05;;;;;;;0.50;0.40;;;;;;;12.02;87.84;90572.22;4994049;28;20026;-85
2021/07/05 02:11:45;;;;;;;1.60;0.47;;;;;;;12.03;87.38;90566.63;4994708;28;20026;-85
2021/07/05 02:14:25;;;;;;;1.85;0.70;;;;;;;12.01;86.47;90562.84;4995075;28;20496;-85
2021/07/05 02:17:04;;;;;;;0.93;0.60;;;;;;;12.04;86.79;90573.34;4994126;28;20116;-85
2021/07/05 02:19:36;;;;;;;1.17;0.63;;;;;;;12.11;86.39;90567.50;4994083;28;20492;-86
2021/07/05 02:22:06;;;;;;;0.88;0.60;;;;;;;12.08;86.80;90568.19;5011247;28;20029;-85
2021/07/05 02:24:47;;;;;;;1.00;0.68;;;;;;;11.95;87.18;90550.06;4977515;28;20096;-85
2021/07/05 02:27:28;;;;;;;3.50;0.77;;;;;;;12.07;86.25;90538.72;4974808;28;20426;-86
2021/07/05 02:30:06;;;;;;;1.65;0.85;;;;;;;12.00;86.73;90541.19;4973356;28;20030;-85
2021/07/05 02:32:46;;;;;;;1.35;0.70;;;;;;;12.05;86.06;90542.78;4959496;28;20023;-85
2021/07/05 02:35:26;;;;;;;1.83;0.90;;;;;;;12.00;86.74;90540.44;4966431;28;20030;-85
2021/07/05 02:38:19;;;;;;;0.93;0.70;;;;;;;12.05;85.45;90534.94;4980948;28;20061;-85
2021/07/05 02:40:47;;;;;;;2.05;0.90;;;;;;;11.90;85.58;90542.50;5056074;23;20049;-84
2021/07/05 02:43:24;;;;;;;1.02;0.73;;;;;;;12.10;84.77;90542.50;4984958;28;20041;-84
2021/07/05 02:46:01;;;;;;;3.40;0.90;;;;;;;11.95;85.67;90534.41;5021170;28;20124;-85
2021/07/05 02:48:34;;;;;;;2.00;0.77;;;;;;;12.01;85.39;90537.47;5001172;28;20479;-84
2021/07/05 02:51:14;;;;;;;1.52;0.90;;;;;;;12.06;85.23;90541.69;4998613;28;20106;-86
2021/07/05 02:53:52;;;;;;;3.00;0.90;;;;;;;12.01;85.66;90539.34;4999101;28;20027;-86
2021/07/05 02:56:31;;;;;;;1.92;0.85;;;;;;;11.93;86.10;90547.03;4985665;28;20056;-85
2021/07/05 02:59:07;;;;;;;3.33;1.00;;;;;;;11.98;86.16;90526.97;4984316;28;20026;-85
2021/07/05 03:01:44;;;;;;;2.75;1.00;;;;;;;12.02;85.80;90538.25;4984174;28;20029;-85
2021/07/05 03:04:23;;;;;;;1.17;0.77;;;;;;;11.95;86.09;90534.41;5001179;28;20036;-84
2021/07/05 03:07:01;;;;;;;1.40;1.00;;;;;;;11.94;86.38;90529.50;4985466;28;20496;-85
2021/07/05 03:09:39;;;;;;;1.98;0.95;;;;;;;11.96;85.72;90533.31;4968259;28;20026;-85
2021/07/05 03:12:16;;;;;;;1.65;0.90;;;;;;;11.98;85.51;90532.19;5000071;28;20026;-84
2021/07/05 03:14:54;;;;;;;3.13;0.88;;;;;;;12.02;85.36;90531.19;5000937;28;20025;-85
2021/07/05 03:17:29;;;;;;;1.70;1.00;;;;;;;11.98;85.56;90524.34;4984768;28;20089;-85
2021/07/05 03:20:10;;;;;;;2.42;0.90;;;;;;;11.88;86.17;90512.63;4984986;28;20030;-84
2021/07/05 03:22:46;;;;;;;1.58;0.70;;;;;;;11.96;84.97;90520.25;4985785;28;20088;-84
2021/07/05 03:25:19;;;;;;;2.25;0.70;;;;;;;11.94;84.66;90519.84;4984743;28;20034;-84
2021/07/05 03:27:54;;;;;;;2.20;0.90;;;;;;;11.97;85.05;90513.16;4999445;28;20514;-86
2021/07/05 03:30:31;;;;;;;1.25;0.75;;;;;;;11.90;85.28;90505.94;4999812;28;20431;-86
2021/07/05 03:33:09;;;;;;;1.38;0.80;;;;;;;11.98;84.33;90504.25;4984526;28;20022;-85
2021/07/05 03:35:45;;;;;;;1.70;0.70;;;;;;;11.94;84.04;90506.00;4968086;28;20025;-85
2021/07/05 03:38:20;;;;;;;1.48;0.70;;;;;;;11.91;84.60;90494.44;4986480;28;20026;-85
2021/07/05 03:40:51;;;;;;;1.45;0.77;;;;;;;11.92;85.16;90501.16;4983140;28;20049;-85
2021/07/05 03:43:17;;;;;;;2.40;1.10;;;;;;;11.98;84.13;90511.31;4983549;28;20402;-85
2021/07/05 03:46:01;;;;;;;1.23;0.70;;;;;;;11.93;84.63;90520.94;4983064;28;20034;-86
2021/07/05 03:48:40;;;;;;;2.30;0.70;;;;;;;11.90;84.49;90515.63;5001903;28;20026;-85
2021/07/05 03:51:18;;;;;;;0.90;0.60;;;;;;;11.94;84.07;90519.84;4984761;28;20762;-85
2021/07/05 03:53:57;;;;;;;1.17;0.70;;;;;;;11.94;84.59;90517.25;4998925;28;20029;-85
2021/07/05 03:56:38;;;;;;;1.50;0.70;;;;;;;11.86;84.95;90509.59;4998133;28;20033;-85
2021/07/05 03:59:14;;;;;;;1.17;0.80;;;;;;;11.94;84.45;90508.63;4982636;28;20046;-84
2021/07/05 04:01:48;;;;;;;0.98;0.70;;;;;;;11.95;84.17;90507.53;4983261;28;20029;-85
2021/07/05 04:04:31;;;;;;;2.70;0.88;;;;;;;12.01;83.98;90521.81;4998973;28;20400;-85
2021/07/05 04:07:09;;;;;;;0.80;0.68;;;;;;;11.98;83.77;90521.75;4999549;28;20447;-85
2021/07/05 04:09:48;;;;;;;2.22;0.82;;;;;;;11.98;83.95;90509.47;4999483;28;20026;-86
2021/07/05 04:12:30;;;;;;;2.28;0.70;;;;;;;11.91;84.48;90502.25;4996791;28;20062;-85
2021/07/05 04:15:07;;;;;;;1.30;0.60;;;;;;;11.96;84.36;90496.75;4979175;28;20040;-85
2021/07/05 04:17:47;;;;;;;1.92;0.80;;;;;;;12.06;84.12;90494.69;4964972;28;20030;-85
2021/07/05 04:20:24;;;;;;;1.58;0.80;;;;;;;11.94;84.57;90496.34;4964142;28;20022;-84
2021/07/05 04:23:05;;;;;;;1.45;0.70;;;;;;;12.01;83.93;90505.38;4964176;28;20121;-84
2021/07/05 04:25:48;;;;;;;1.67;0.70;;;;;;;12.10;83.65;90521.59;4989481;28;20404;-86
2021/07/05 04:28:29;;;;;;;1.10;0.68;;;;;;;12.06;84.01;90518.19;4983405;28;20022;-85
2021/07/05 04:31:12;;;;;;;1.15;0.70;;;;;;;12.07;83.55;90514.47;4998780;28;20030;-85
2021/07/05 04:33:47;;;;;;;1.45;0.70;;;;;;;12.09;83.44;90514.88;5000134;28;20034;-85
2021/07/05 04:36:24;;;;;;;1.05;0.60;;;;;;;12.08;83.49;90515.97;5016625;28;20030;-85
2021/07/05 04:39:03;;;;;;;2.05;0.63;;;;;;;12.08;83.80;90510.75;4983438;28;20030;-84
2021/07/05 04:41:43;;;;;;;3.40;0.70;;;;;;;12.01;83.89;90513.22;5017097;28;20066;-84
2021/07/05 04:44:20;;;;;;;1.52;0.90;;;;;;;12.05;83.08;90499.16;5016722;28;20045;-85
2021/07/05 04:46:49;;;;;;;0.68;0.50;;;;;;;12.18;83.06;90497.13;4999179;28;20026;-85
2021/07/05 04:49:28;;;;;;;2.75;0.60;;;;;;;12.10;84.02;90500.72;4979275;28;20025;-86
2021/07/05 04:52:09;;;;;;;0.90;0.70;;;;;;;12.16;83.48;90507.16;4973728;28;20030;-88
2021/07/05 04:54:40;;;;;;;1.30;0.63;;;;;;;12.13;83.54;90510.47;4987892;28;20010;-88
2021/07/05 04:57:22;;;;;;;2.25;0.77;;;;;;;12.18;83.78;90513.53;4995540;28;20022;-84
2021/07/05 05:00:00;;;;;;;1.13;0.60;;;;;;;12.19;82.99;90529.97;4965800;28;20488;-84
2021/07/05 05:02:42;;;;;;;1.30;0.68;;;;;;;12.18;83.29;90523.25;4965307;28;20034;-85
2021/07/05 05:05:20;;;;;;;1.15;0.65;;;;;;;12.27;83.09;90515.19;4980968;28;20026;-84
2021/07/05 05:07:55;;;;;;;2.40;0.65;;;;;;;12.27;83.17;90508.09;4996829;28;20029;-85
2021/07/05 05:10:23;;;;;;;0.85;0.60;;;;;;;12.32;83.02;90510.41;4970173;28;20037;-85
2021/07/05 05:13:01;;;;;;;1.20;0.90;;;;;;;12.26;83.65;90505.81;4998876;28;20029;-85
2021/07/05 05:15:40;;;;;;;4.80;1.40;;;;;;;12.37;82.99;90504.16;4983665;28;20030;-85
2021/07/05 05:18:18;;;;;;;2.67;0.60;;;;;;;12.27;82.81;90508.09;4984567;28;20022;-84
2021/07/05 05:20:54;;;;;;;1.65;0.60;;;;;;;12.33;82.17;90522.41;4984380;28;20026;-85
2021/07/05 05:23:30;;;;;;;2.80;0.50;;;;;;;12.25;83.13;90509.53;4995591;28;20045;-85
2021/07/05 05:26:08;;;;;;;1.27;0.60;;;;;;;12.33;81.89;90509.34;4984667;28;20033;-84
2021/07/05 05:28:51;;;;;;;2.10;0.63;;;;;;;12.34;81.38;90513.44;4985141;28;20022;-84
2021/07/05 05:31:23;;;;;;;2.35;0.68;;;;;;;12.31;82.11;90518.63;4984309;28;20026;-86
2021/07/05 05:33:57;;;;;;;1.05;0.70;;;;;;;12.24;82.98;90508.03;5001097;28;20472;-86
2021/07/05 05:36:31;;;;;;;1.17;0.70;;;;;;;12.27;82.58;90507.34;5016952;28;20032;-85
2021/07/05 05:39:02;;;;;;;0.57;0.50;;;;;;;12.31;83.02;90503.69;4998798;28;20026;-86
2021/07/05 05:41:34;;;;;;;0.85;0.60;;;;;;;12.32;82.49;90507.81;5014120;28;20084;-86
2021/07/05 05:44:04;;;;;;;2.40;0.70;;;;;;;12.36;82.02;90497.41;4999712;28;20079;-85
2021/07/05 05:46:35;;;;;;;1.45;0.60;;;;;;;12.40;82.79;90512.06;4983079;28;20020;-86
2021/07/05 05:49:05;;;;;;;1.00;0.45;;;;;;;12.32;82.72;90514.91;5017245;28;20103;-86
2021/07/05 05:51:35;;;;;;;0.60;0.40;;;;;;;12.36;82.54;90505.25;4966332;28;20018;-85
2021/07/05 05:54:06;;;;;;;0.88;0.50;;;;;;;12.44;82.47;90518.09;4984248;28;20445;-85
2021/07/05 05:56:39;;;;;;;2.00;0.60;;;;;;;12.30;84.10;90512.66;4995747;28;20033;-85
2021/07/05 05:59:09;;;;;;;1.20;0.65;;;;;;;12.26;84.00;90501.38;4980826;28;20023;-85
2021/07/05 06:01:50;;;;;;;2.45;0.60;;;;;;;12.29;85.12;90508.50;4979639;28;20026;-86
2021/07/05 06:04:26;;;;;;;1.38;0.45;;;;;;;12.37;85.37;90515.38;5023559;28;20037;-85
2021/07/05 06:07:07;;;;;;;1.48;0.60;;;;;;;12.36;86.31;90506.00;4981657;28;20030;-86
2021/07/05 06:09:43;;;;;;;2.78;0.70;;;;;;;12.39;86.56;90505.31;4981876;28;20080;-86
2021/07/05 06:12:21;;;;;;;2.17;0.70;;;;;;;12.39;86.67;90500.09;4995426;28;20058;-86
2021/07/05 06:14:58;;;;;;;1.20;0.50;;;;;;;12.41;86.71;90510.97;4979474;28;20061;-86
2021/07/05 06:17:31;;;;;;;1.15;0.50;;;;;;;12.55;85.64;90514.91;4997011;28;20548;-86
2021/07/05 06:20:08;;;;;;;1.10;0.38;;;;;;;12.58;85.54;90517.59;5002525;28;20030;-86
2021/07/05 06:22:54;;;;;;;1.25;0.40;;;;;;;12.58;85.82;90508.97;5001102;28;20022;-86
2021/07/05 06:25:30;;;;;;;1.48;0.60;;;;;;;12.65;85.70;90509.09;4997267;28;20030;-86
2021/07/05 06:28:06;;;;;;;0.47;0.35;;;;;;;12.75;86.58;90507.75;4981414;28;20109;-85
2021/07/05 06:30:51;;;;;;;1.17;0.50;;;;;;;12.81;85.10;90504.47;5000318;28;20022;-87
2021/07/05 06:33:18;;;;;;;0.90;0.50;;;;;;;12.73;86.10;90504.75;5009344;28;20030;-86
2021/07/05 06:35:50;;;;;;;2.03;0.30;;;;;;;12.78;85.02;90501.81;4987007;28;20552;-86
2021/07/05 06:38:31;;;;;;;0.98;0.43;;;;;;;12.91;85.91;90497.91;4988547;28;20022;-85
2021/07/05 06:41:07;;;;;;;1.73;0.50;;;;;;;12.94;86.01;90496.47;5022759;28;20045;-86
2021/07/05 06:43:41;;;;;;;0.40;0.40;;;;;;;12.84;87.05;90498.56;4989995;28;20741;-85
2021/07/05 06:46:18;;;;;;;0.60;0.40;;;;;;;12.88;85.82;90498.59;5003192;28;20476;-84
2021/07/05 06:48:48;;;;;;;1.95;0.40;;;;;;;12.85;85.67;90494.81;4973600;28;20407;-85
2021/07/05 06:51:22;;;;;;;0.60;0.30;;;;;;;12.82;85.60;90492.16;5003346;28;20017;-86
2021/07/05 06:53:55;;;;;;;2.20;0.40;;;;;;;12.73;85.89;90492.41;4985779;28;20037;-87
2021/07/05 06:56:38;;;;;;;1.40;0.50;;;;;;;12.73;85.86;90495.03;4981325;28;20518;-87
2021/07/05 06:59:06;;;;;;;0.75;0.47;;;;;;;12.88;86.32;90491.50;4999850;28;20030;-88
2021/07/05 07:01:44;;;;;;;0.73;0.50;;;;;;;12.90;86.96;90497.16;4981973;28;20116;-85
2021/07/05 07:04:18;;;;;;;0.95;0.32;;;;;;;12.97;86.99;90498.34;4969437;28;20029;-87
2021/07/05 07:06:55;;;;;;;0.65;0.40;;;;;;;12.84;86.47;90500.41;5019757;28;20037;-87
2021/07/05 07:09:40;;;;;;;0.70;0.52;;;;;;;12.95;86.20;90508.44;5002867;28;20503;-86
2021/07/05 07:12:16;;;;;;;1.52;0.40;;;;;;;13.00;85.88;90513.34;5021460;28;20052;-82
2021/07/05 07:14:54;;;;;;;1.40;0.47;;;;;;;12.93;84.45;90506.16;4990484;28;20033;-86
2021/07/05 07:17:33;;;;;;;0.70;0.32;;;;;;;12.92;86.15;90504.66;5011700;28;20010;-87
2021/07/05 07:20:11;;;;;;;0.68;0.40;;;;;;;12.77;85.57;90508.91;4989319;28;20021;-87
2021/07/05 07:22:48;;;;;;;1.23;0.40;;;;;;;12.97;83.77;90506.97;5004715;28;20057;-86
2021/07/05 07:25:27;;;;;;;2.55;0.70;;;;;;;12.80;84.42;90507.47;5005349;28;20029;-86
2021/07/05 07:28:06;;;;;;;1.65;0.70;;;;;;;12.92;85.76;90520.34;5005144;28;20480;-86
2021/07/05 07:30:42;;;;;;;0.65;0.50;;;;;;;13.04;84.19;90514.94;4999794;28;20034;-86
2021/07/05 07:33:18;;;;;;;0.63;0.50;;;;;;;12.89;86.18;90519.16;5002838;28;20030;-86
2021/07/05 07:35:46;;;;;;;1.23;0.60;;;;;;;12.90;86.28;90515.47;4987736;28;20026;-85
2021/07/05 07:38:12;;;;;;;0.80;0.60;;;;;;;12.87;86.39;90510.94;4984504;28;20033;-87
2021/07/05 07:40:48;;;;;;;2.40;0.80;;;;;;;12.82;86.96;90513.84;4982905;28;20030;-85
2021/07/05 07:43:19;;;;;;;1.15;0.60;;;;;;;12.85;85.57;90505.28;4998979;28;20026;-85
2021/07/05 07:45:48;;;;;;;1.20;0.50;;;;;;;13.00;85.52;90513.34;5003222;28;20105;-86
2021/07/05 07:48:18;;;;;;;0.70;0.60;;;;;;;13.16;84.89;90506.13;5002074;28;20057;-86
2021/07/05 07:50:54;;;;;;;2.58;0.75;;;;;;;13.27;85.40;90499.19;5001944;28;20026;-85
2021/07/05 07:53:35;;;;;;;1.55;0.98;;;;;;;13.39;85.13;90490.34;5004666;28;20046;-86
2021/07/05 07:56:01;;;;;;;1.35;0.80;;;;;;;13.48;84.98;90490.09;5015563;28;20060;-86
2021/07/05 07:58:28;;;;;;;1.10;0.80;;;;;;;13.52;82.91;90489.03;4983799;28;20018;-87
2021/07/05 08:00:55;;;;;;;1.20;0.73;;;;;;;13.68;82.96;90499.34;4994852;28;20736;-86
2021/07/05 08:03:24;;;;;;;1.92;0.60;;;;;;;13.65;82.79;90486.94;4980554;28;20026;-86
2021/07/05 08:05:54;;;;;;;1.38;0.80;;;;;;;13.72;83.36;90487.03;4987520;28;20022;-87
2021/07/05 08:08:30;;;;;;;1.00;0.80;;;;;;;13.37;85.10;90487.34;4982147;28;20029;-86
2021/07/05 08:10:55;;;;;;;1.25;0.70;;;;;;;13.56;84.03;90489.06;4997688;28;20053;-86
2021/07/05 08:13:21;;;;;;;3.05;0.70;;;;;;;13.70;82.37;90491.13;4998480;28;20064;-88
2021/07/05 08:15:48;;;;;;;1.40;0.80;;;;;;;13.80;81.76;90493.09;4980919;28;20026;-86
2021/07/05 08:18:14;;;;;;;3.80;0.88;;;;;;;13.84;81.66;90494.63;5000674;28;20080;-86
2021/07/05 08:20:41;;;;;;;2.45;0.77;;;;;;;14.04;81.49;90497.84;5014090;28;20029;-86
2021/07/05 08:23:09;;;;;;;1.17;0.77;;;;;;;13.91;82.12;90487.97;4980068;28;20098;-86
2021/07/05 08:25:36;;;;;;;1.23;0.93;;;;;;;13.90;82.14;90478.63;5001634;28;20095;-88
2021/07/05 08:28:10;;;;;;;1.95;0.70;;;;;;;14.17;81.39;90487.91;5012495;28;20036;-91
2021/07/05 08:30:36;;;;;;;1.92;0.90;;;;;;;14.10;79.89;90477.34;5037822;28;20021;-90
2021/07/05 08:33:03;;;;;;;1.42;1.00;;;;;;;14.10;79.48;90490.44;5023287;28;20038;-86
2021/07/05 08:35:32;;;;;;;2.72;0.75;;;;;;;13.98;80.39;90480.94;4996200;28;20029;-86
2021/07/05 08:38:02;;;;;;;0.98;0.80;;;;;;;13.90;79.82;90478.63;4996121;28;20455;-87
2021/07/05 08:40:37;;;;;;;1.45;0.90;;;;;;;14.01;80.28;90476.88;5011540;28;20389;-87
2021/07/05 08:43:05;;;;;;;3.22;1.00;;;;;;;14.08;82.34;90482.94;5055789;23;20049;-85
2021/07/05 08:45:45;;;;;;;1.30;0.90;;;;;;;14.03;80.63;90485.13;4995333;28;20265;-86
2021/07/05 08:48:13;;;;;;;1.60;0.80;;;;;;;13.95;79.73;90483.53;5013556;28;20021;-86
2021/07/05 08:50:48;;;;;;;1.17;0.80;;;;;;;13.96;81.27;90485.06;4980023;28;20029;-84
2021/07/05 08:53:14;;;;;;;1.65;0.93;;;;;;;13.99;79.59;90479.06;4995222;28;20029;-85
2021/07/05 08:55:43;;;;;;;1.40;1.00;;;;;;;13.91;80.97;90480.13;4979128;28;20033;-85
2021/07/05 08:58:14;;;;;;;1.13;0.98;;;;;;;13.93;80.72;90483.16;5010942;28;20021;-84
2021/07/05 09:00:40;;;;;;;2.05;0.80;;;;;;;13.94;79.78;90480.16;5006191;28;20029;-84
2021/07/05 09:03:07;;;;;;;1.42;0.90;;;;;;;13.95;80.17;90480.91;5001899;28;20032;-86
2021/07/05 09:05:32;;;;;;;1.92;0.85;;;;;;;13.95;81.11;90483.53;4979176;28;20033;-86
2021/07/05 09:08:02;;;;;;;1.75;0.95;;;;;;;14.11;80.34;90471.72;5001935;28;20018;-86
2021/07/05 09:10:38;;;;;;;1.13;0.65;;;;;;;14.16;80.90;90478.50;5012479;28;20983;-86
2021/07/05 09:13:08;;;;;;;1.00;0.68;;;;;;;14.10;80.14;90474.72;4980128;28;20034;-85
2021/07/05 09:15:36;;;;;;;1.67;0.63;;;;;;;14.20;81.05;90479.28;5005746;28;20072;-86
2021/07/05 09:18:05;;;;;;;1.13;0.60;;;;;;;14.31;80.43;90488.03;4998941;28;20026;-86
2021/07/05 09:20:34;;;;;;;1.65;0.60;;;;;;;14.02;82.03;90488.84;4997113;28;20108;-86
2021/07/05 09:23:13;;;;;;;2.80;0.40;;;;;;;13.97;81.87;90494.41;4981920;28;20080;-84
2021/07/05 09:25:42;;;;;;;0.60;0.50;;;;;;;13.96;82.31;90487.69;4977945;28;20442;-86
2021/07/05 09:28:14;;;;;;;0.70;0.50;;;;;;;13.94;81.80;90493.25;5009213;28;20021;-83
2021/07/05 09:30:43;;;;;;;0.70;0.47;;;;;;;13.76;82.85;90493.06;5014320;28;20025;-84
2021/07/05 09:33:20;;;;;;;1.80;0.70;;;;;;;13.77;82.97;90494.56;4998025;28;20032;-85
2021/07/05 09:36:06;;;;;;;2.65;0.70;;;;;;;13.66;81.57;90493.69;4998151;28;20029;-86
2021/07/05 09:38:41;;;;;;;0.95;0.75;;;;;;;13.63;81.56;90489.16;4997672;28;20124;-86
2021/07/05 09:41:29;;;;;;;2.15;0.90;;;;;;;13.57;82.27;90493.97;4997738;28;20029;-86
2021/07/05 09:44:00;;;;;;;1.30;0.82;;;;;;;13.63;80.89;90484.69;4997587;28;20030;-86
2021/07/05 09:46:50;;;;;;;1.73;0.77;;;;;;;13.62;81.51;90487.66;4998400;28;20025;-85
2021/07/05 09:49:35;;;;;;;8.60;1.27;;;;;;;13.85;81.64;90496.16;5015899;28;20040;-85
2021/07/05 09:52:12;;;;;;;1.40;0.90;;;;;;;13.96;80.30;90492.91;4998254;28;20041;-87
2021/07/05 09:54:47;;;;;;;1.13;1.00;;;;;;;13.84;80.27;90492.03;5015089;28;20017;-85
2021/07/05 09:57:26;;;;;;;1.65;0.90;;;;;;;13.78;81.77;90495.31;5000404;28;20029;-85
2021/07/05 09:59:56;;;;;;;5.72;0.90;;;;;;;13.67;81.95;90489.19;5001820;28;20394;-86
2021/07/05 10:02:27;;;;;;;2.25;0.90;;;;;;;13.60;83.38;90495.09;5004035;28;20033;-86
2021/07/05 10:05:10;;;;;;;2.10;1.10;;;;;;;13.63;83.64;90494.41;4979266;28;20033;-86
2021/07/05 10:07:36;;;;;;;1.77;1.02;;;;;;;13.64;83.80;90495.94;4979691;28;20095;-88
2021/07/05 10:10:14;;;;;;;2.72;1.10;;;;;;;13.60;82.60;90495.09;4994751;28;20522;-86
2021/07/05 10:13:07;;;;;;;1.83;1.35;;;;;;;13.88;82.20;90505.91;4996162;28;20399;-84
2021/07/05 10:15:40;;;;;;;2.28;1.27;;;;;;;14.16;81.20;90488.25;4993132;28;20040;-86
2021/07/05 10:18:08;;;;;;;2.57;1.13;;;;;;;14.15;80.61;90484.88;5013353;28;20025;-85
2021/07/05 10:20:39;;;;;;;1.58;0.95;;;;;;;14.09;80.61;90478.44;4995366;28;20030;-86
2021/07/05 10:23:14;;;;;;;1.25;1.10;;;;;;;14.08;80.69;90485.53;5013189;28;20026;-85
2021/07/05 10:25:46;;;;;;;1.55;1.10;;;;;;;13.96;79.75;90474.56;5005688;28;20021;-85
2021/07/05 10:28:17;;;;;;;2.35;1.20;;;;;;;13.85;80.69;90484.91;5015210;28;20021;-85
2021/07/05 10:30:49;;;;;;;1.35;0.95;;;;;;;13.75;81.60;90481.09;5031995;28;20433;-85
2021/07/05 10:33:16;;;;;;;2.70;0.70;;;;;;;13.73;81.53;90490.41;5014527;28;20036;-85
2021/07/05 10:35:53;;;;;;;2.90;1.10;;;;;;;13.69;81.97;90487.75;4997663;28;20092;-86
2021/07/05 10:38:32;;;;;;;0.82;0.63;;;;;;;13.62;84.22;90485.03;5013913;28;20634;-84
2021/07/05 10:41:16;;;;;;;1.48;0.60;;;;;;;13.67;83.16;90500.44;5000061;28;20033;-84
2021/07/05 10:43:52;;;;;;;1.10;0.60;;;;;;;13.88;82.40;90487.56;5016565;28;20030;-84
2021/07/05 10:46:42;;;;;;;1.52;0.60;;;;;;;14.06;80.80;90487.00;5014397;28;20263;-86
2021/07/05 10:49:34;;;;;;;2.50;0.82;;;;;;;14.38;82.23;90499.69;5014382;28;20049;-86
2021/07/05 10:52:05;;;;;;;1.38;0.70;;;;;;;14.44;79.66;90482.50;5023628;28;20156;-86
2021/07/05 10:54:47;;;;;;;1.00;0.68;;;;;;;14.38;80.58;90499.69;5032307;28;20029;-84
2021/07/05 10:57:20;;;;;;;1.63;0.70;;;;;;;13.95;80.15;90488.78;5015378;28;20108;-86
2021/07/05 10:59:47;;;;;;;1.73;0.70;;;;;;;13.95;80.47;90504.50;5000083;28;20712;-84
2021/07/05 11:02:38;;;;;;;1.48;0.90;;;;;;;13.79;80.20;90502.81;4999269;28;20438;-85
2021/07/05 11:05:25;;;;;;;2.25;0.80;;;;;;;13.84;80.05;90505.13;5035690;28;20048;-84
2021/07/05 11:07:52;;;;;;;1.40;0.63;;;;;;;13.77;82.59;90502.41;5022038;28;20116;-84
2021/07/05 11:10:31;;;;;;;1.27;0.60;;;;;;;13.67;78.59;90497.06;5019330;28;20510;-86
2021/07/05 11:13:06;;;;;;;0.98;0.60;;;;;;;13.68;79.70;90501.22;5020551;28;20033;-85
2021/07/05 11:15:55;;;;;;;2.88;0.80;;;;;;;13.44;78.21;90487.44;5002667;28;20080;-85
2021/07/05 11:18:36;;;;;;;3.83;0.90;;;;;;;13.61;80.18;90513.09;5018872;28;20028;-85
2021/07/05 11:21:13;;;;;;;0.85;0.70;;;;;;;13.63;79.11;90504.88;5020607;28;20096;-85
2021/07/05 11:24:04;;;;;;;0.70;0.60;;;;;;;13.84;78.21;90505.13;4986165;28;20040;-85
2021/07/05 11:26:46;;;;;;;1.80;0.90;;;;;;;13.73;80.27;90503.50;5020707;28;20022;-84
2021/07/05 11:29:17;;;;;;;1.58;0.63;;;;;;;13.84;78.52;90502.50;5015821;28;20041;-83
2021/07/05 11:31:52;;;;;;;3.20;0.85;;;;;;;14.28;79.00;90501.09;5016096;28;20109;-85
2021/07/05 11:34:30;;;;;;;1.52;0.90;;;;;;;14.56;78.90;90500.63;5016176;28;20057;-84
2021/07/05 11:37:27;;;;;;;2.38;0.77;;;;;;;14.94;74.48;90494.16;5017768;28;20480;-85
2021/07/05 11:39:53;;;;;;;2.28;0.82;;;;;;;15.40;74.06;90498.97;5005044;28;20034;-85
2021/07/05 11:42:20;;;;;;;0.95;0.80;;;;;;;15.82;75.80;90504.81;5016457;28;20145;-84
2021/07/05 11:45:01;;;;;;;2.22;0.70;;;;;;;15.84;75.18;90507.84;5016126;28;20431;-85
2021/07/05 11:47:36;;;;;;;2.58;0.80;;;;;;;15.68;72.09;90508.88;5000480;28;20176;-85
2021/07/05 11:50:17;;;;;;;2.67;1.00;;;;;;;15.84;75.58;90500.72;5016578;28;20464;-85
2021/07/05 11:52:49;;;;;;;1.92;0.85;;;;;;;16.22;73.15;90494.09;5017218;28;20097;-84
2021/07/05 11:55:17;;;;;;;2.85;0.80;;;;;;;16.17;70.07;90504.19;5016886;28;20049;-85
2021/07/05 11:57:52;;;;;;;4.85;0.93;;;;;;;16.34;70.53;90503.50;5015144;28;20022;-86
2021/07/05 12:00:26;;;;;;;2.90;0.90;;;;;;;16.63;70.09;90501.66;4999318;28;20038;-85
2021/07/05 12:03:09;;;;;;;2.03;0.80;;;;;;;16.20;71.96;90496.31;5016458;28;20038;-85
2021/07/05 12:05:45;;;;;;;1.33;0.80;;;;;;;16.39;70.11;90502.38;5017722;28;20014;-84
2021/07/05 12:08:13;;;;;;;2.22;0.88;;;;;;;16.05;71.35;90515.06;5016487;28;20022;-85
2021/07/05 12:10:52;;;;;;;1.95;0.82;;;;;;;15.56;70.59;90496.06;5018476;28;20025;-83
2021/07/05 12:13:32;;;;;;;2.83;0.90;;;;;;;15.25;72.61;90506.00;5019972;28;20121;-85
2021/07/05 12:16:03;;;;;;;2.08;0.95;;;;;;;15.35;70.31;90501.94;5033014;28;20036;-84